Time;durP1;ratioP1;P1;durP2;ratioP2;P2;SDS_P1;SDS_P2;PMS_P1;PMS_P2;Temp;Humidity;BMP_temperature;BMP_pressure;BME280_temperature;BME280_humidity;BME280_pressure;Samples;Min_cycle;Max_cycle;Signal;HPM_P1;HPM_P2
2023/04/23 00:01:01;;;;;;;154.75;86.47;;;;;;;6.78;100.00;100657.84;5094389;28;20028;-53
2023/04/23 00:03:27;;;;;;;154.75;85.35;;;;;;;6.70;100.00;100652.41;5092037;28;20078;-53
2023/04/23 00:05:56;;;;;;;143.35;81.78;;;;;;;6.57;100.00;100652.69;5093856;28;20494;-54
2023/04/23 00:08:22;;;;;;;147.63;83.65;;;;;;;6.68;100.00;100643.78;5093217;28;20032;-53
2023/04/23 00:10:47;;;;;;;159.48;88.78;;;;;;;6.67;100.00;100649.69;5092993;28;20386;-53
2023/04/23 00:13:13;;;;;;;161.07;88.55;;;;;;;6.64;100.00;100635.91;5093758;28;20027;-53
2023/04/23 00:15:39;;;;;;;162.45;88.70;;;;;;;6.60;100.00;100645.16;5093399;28;20020;-52
2023/04/23 00:18:04;;;;;;;167.73;88.63;;;;;;;6.58;100.00;100637.41;5092617;28;20538;-54
2023/04/23 00:20:30;;;;;;;172.80;91.32;;;;;;;6.58;100.00;100634.84;5093329;28;20099;-53
2023/04/23 00:22:55;;;;;;;161.57;87.45;;;;;;;6.50;100.00;100636.19;5093394;28;20062;-54
2023/04/23 00:25:20;;;;;;;186.25;93.53;;;;;;;6.45;100.00;100632.56;5092439;28;20405;-53
2023/04/23 00:27:46;;;;;;;200.88;97.43;;;;;;;6.50;100.00;100630.22;5093442;28;20035;-53
2023/04/23 00:30:12;;;;;;;200.70;96.68;;;;;;;6.44;100.00;100628.25;5093359;28;20019;-53
2023/04/23 00:32:37;;;;;;;191.30;94.60;;;;;;;6.42;100.00;100628.19;5092243;28;20429;-53
2023/04/23 00:35:03;;;;;;;187.27;93.25;;;;;;;6.41;100.00;100625.56;5093211;28;20070;-52
2023/04/23 00:37:28;;;;;;;189.63;93.32;;;;;;;6.38;100.00;100631.44;5092632;28;20192;-54
2023/04/23 00:39:53;;;;;;;186.73;92.82;;;;;;;6.37;100.00;100626.25;5092763;28;20031;-53
2023/04/23 00:42:19;;;;;;;184.57;93.28;;;;;;;6.30;100.00;100624.22;5093059;28;20157;-52
2023/04/23 00:44:44;;;;;;;177.10;91.57;;;;;;;6.28;100.00;100620.75;5093026;28;20431;-53
2023/04/23 00:47:11;;;;;;;188.02;91.10;;;;;;;6.31;100.00;100611.47;5092561;28;20028;-53
2023/04/23 00:49:38;;;;;;;184.02;91.72;;;;;;;6.33;100.00;100611.56;5092801;28;20027;-52
2023/04/23 00:52:03;;;;;;;183.95;91.38;;;;;;;6.23;100.00;100613.72;5092794;28;20054;-53
2023/04/23 00:54:29;;;;;;;179.15;90.18;;;;;;;6.25;100.00;100609.53;5091933;28;20071;-53
2023/04/23 00:56:56;;;;;;;188.75;88.30;;;;;;;6.23;100.00;100606.03;5093061;28;20043;-53
2023/04/23 00:59:23;;;;;;;181.65;90.72;;;;;;;6.22;100.00;100612.00;5091841;28;20028;-54
2023/04/23 01:01:48;;;;;;;180.73;88.32;;;;;;;6.19;100.00;100608.41;5092943;28;20028;-53
2023/04/23 01:04:16;;;;;;;191.85;90.25;;;;;;;6.22;100.00;100601.75;5092680;28;20051;-53
2023/04/23 01:06:42;;;;;;;188.80;91.32;;;;;;;6.25;100.00;100595.88;5092081;28;20036;-53
2023/04/23 01:09:08;;;;;;;177.15;89.57;;;;;;;6.25;100.00;100594.19;5093093;28;20020;-52
2023/04/23 01:11:37;;;;;;;180.10;90.97;;;;;;;6.28;100.00;100590.88;5092692;28;20032;-53
2023/04/23 01:14:03;;;;;;;187.35;90.38;;;;;;;6.29;100.00;100586.63;5092031;28;20376;-53
2023/04/23 01:16:28;;;;;;;175.15;89.38;;;;;;;6.32;100.00;100587.66;5096690;28;20506;-53
2023/04/23 01:18:55;;;;;;;178.40;90.20;;;;;;;6.33;100.00;100588.53;5096908;28;20074;-53
2023/04/23 01:21:22;;;;;;;176.45;90.38;;;;;;;6.31;100.00;100583.31;5096114;28;20035;-55
2023/04/23 01:23:48;;;;;;;171.40;87.60;;;;;;;6.30;100.00;100579.03;5097025;28;20024;-53
2023/04/23 01:26:13;;;;;;;156.40;84.15;;;;;;;6.27;100.00;100581.44;5097031;28;20020;-53
2023/04/23 01:28:40;;;;;;;163.73;84.63;;;;;;;6.24;100.00;100576.22;5095617;28;20378;-53
2023/04/23 01:31:05;;;;;;;159.88;84.47;;;;;;;6.25;100.00;100581.41;5096796;28;20028;-53
2023/04/23 01:33:31;;;;;;;148.90;83.45;;;;;;;6.26;100.00;100577.13;5096329;28;20024;-53
2023/04/23 01:35:57;;;;;;;156.07;84.63;;;;;;;6.21;100.00;100573.50;5096220;28;20024;-54
2023/04/23 01:38:26;;;;;;;147.32;81.38;;;;;;;6.20;100.00;100574.34;5096442;28;20026;-53
2023/04/23 01:40:51;;;;;;;148.15;79.30;;;;;;;6.19;100.00;100576.00;5096444;28;20032;-53
2023/04/23 01:43:16;;;;;;;151.15;82.68;;;;;;;6.22;100.00;100573.59;5095762;28;20020;-54
2023/04/23 01:45:42;;;;;;;134.73;78.05;;;;;;;6.20;100.00;100571.78;5096400;28;20410;-53
2023/04/23 01:48:07;;;;;;;146.30;82.18;;;;;;;6.23;100.00;100572.75;5095960;28;20123;-53
2023/04/23 01:50:33;;;;;;;139.57;79.03;;;;;;;6.28;100.00;100569.56;5095571;28;20039;-55
2023/04/23 01:52:58;;;;;;;139.10;80.93;;;;;;;6.31;100.00;100572.22;5096432;28;20034;-54
2023/04/23 01:55:23;;;;;;;143.50;80.25;;;;;;;6.30;100.00;100567.91;5095850;28;20043;-54
2023/04/23 01:57:50;;;;;;;136.93;80.88;;;;;;;6.32;100.00;100566.31;5095731;28;20107;-53
2023/04/23 02:00:16;;;;;;;130.30;77.38;;;;;;;6.35;100.00;100566.41;5096128;28;20020;-54
2023/04/23 02:02:42;;;;;;;123.75;74.75;;;;;;;6.36;100.00;100561.34;5095149;28;20031;-53
2023/04/23 02:05:17;;;;;;;127.40;77.43;;;;;;;6.35;100.00;100567.31;5096270;28;20065;-53
2023/04/23 02:07:43;;;;;;;127.95;74.95;;;;;;;6.36;100.00;100568.19;5096114;28;20032;-54
2023/04/23 02:10:09;;;;;;;120.35;73.50;;;;;;;6.35;100.00;100572.44;5095304;28;20047;-53
2023/04/23 02:12:38;;;;;;;122.53;70.70;;;;;;;6.35;100.00;100566.41;5095715;28;20553;-54
2023/04/23 02:15:05;;;;;;;115.15;71.45;;;;;;;6.35;100.00;100561.31;5095890;28;20047;-53
2023/04/23 02:17:31;;;;;;;118.22;70.78;;;;;;;6.31;100.00;100559.44;5094720;28;20486;-54
2023/04/23 02:19:56;;;;;;;116.97;72.88;;;;;;;6.33;100.00;100558.69;5095748;28;20490;-53
2023/04/23 02:22:24;;;;;;;115.72;70.97;;;;;;;6.35;100.00;100557.06;5095609;28;20032;-53
2023/04/23 02:24:50;;;;;;;115.25;70.85;;;;;;;6.33;100.00;100551.00;5094564;28;20053;-54
2023/04/23 02:27:16;;;;;;;113.97;70.68;;;;;;;6.35;100.00;100545.94;5095123;28;20031;-51
2023/04/23 02:29:41;;;;;;;115.88;69.57;;;;;;;6.33;100.00;100543.31;5095556;28;20149;-53
2023/04/23 02:32:06;;;;;;;114.10;69.47;;;;;;;6.35;100.00;100551.06;5094783;28;20032;-53
2023/04/23 02:34:32;;;;;;;114.93;70.93;;;;;;;6.39;100.00;100552.94;5095287;28;20020;-53
2023/04/23 02:36:57;;;;;;;106.80;67.50;;;;;;;6.37;100.00;100555.44;5095326;28;20396;-53
2023/04/23 02:39:22;;;;;;;106.22;66.55;;;;;;;6.41;100.00;100557.31;5094596;28;20028;-53
2023/04/23 02:41:47;;;;;;;104.05;68.88;;;;;;;6.42;100.00;100553.94;5095361;28;20028;-53
2023/04/23 02:44:13;;;;;;;102.53;67.22;;;;;;;6.46;100.00;100554.09;5095207;28;20047;-53
2023/04/23 02:46:38;;;;;;;99.88;64.35;;;;;;;6.43;100.00;100552.28;5094265;28;20036;-52
2023/04/23 02:49:05;;;;;;;102.55;65.85;;;;;;;6.40;100.00;100550.47;5095345;28;20031;-54
2023/04/23 02:51:31;;;;;;;96.97;63.43;;;;;;;6.38;100.00;100546.97;5094725;28;20056;-53
2023/04/23 02:53:56;;;;;;;95.45;63.88;;;;;;;6.40;100.00;100550.47;5094601;28;20379;-52
2023/04/23 02:56:22;;;;;;;95.25;63.33;;;;;;;6.42;100.00;100553.09;5094871;28;20023;-53
2023/04/23 02:58:47;;;;;;;99.00;64.75;;;;;;;6.39;100.00;100552.94;5094807;28;20495;-53
2023/04/23 03:01:12;;;;;;;99.57;64.85;;;;;;;6.44;100.00;100551.44;5094388;28;20032;-52
2023/04/23 03:03:38;;;;;;;99.82;64.13;;;;;;;6.44;100.00;100554.00;5094484;28;20364;-53
2023/04/23 03:06:05;;;;;;;100.78;64.45;;;;;;;6.47;100.00;100550.69;5094169;28;20055;-54
2023/04/23 03:08:31;;;;;;;99.72;62.40;;;;;;;6.48;100.00;100550.78;5094652;28;20054;-53
2023/04/23 03:10:56;;;;;;;97.20;63.97;;;;;;;6.53;100.00;100550.94;5094895;28;20475;-53
2023/04/23 03:13:21;;;;;;;101.13;62.97;;;;;;;6.56;100.00;100545.97;5093590;28;20040;-53
2023/04/23 03:15:47;;;;;;;99.38;65.28;;;;;;;6.58;100.00;100540.09;5094861;28;20032;-53
2023/04/23 03:18:13;;;;;;;90.53;60.60;;;;;;;6.58;100.00;100540.09;5094605;28;20474;-53
2023/04/23 03:20:38;;;;;;;84.55;59.78;;;;;;;6.63;100.00;100530.03;5093627;28;20127;-54
2023/04/23 03:23:06;;;;;;;85.78;58.70;;;;;;;6.59;100.00;100521.34;5094601;28;20031;-53
2023/04/23 03:25:32;;;;;;;88.28;58.83;;;;;;;6.54;100.00;100524.53;5094080;28;20383;-53
2023/04/23 03:27:58;;;;;;;83.28;58.10;;;;;;;6.54;100.00;100527.09;5093587;28;20024;-53
2023/04/23 03:30:24;;;;;;;79.35;57.22;;;;;;;6.54;100.00;100527.09;5094015;28;20020;-52
2023/04/23 03:32:49;;;;;;;82.90;59.25;;;;;;;6.53;100.00;100531.38;5094552;28;20028;-53
2023/04/23 03:35:15;;;;;;;86.35;58.70;;;;;;;6.57;100.00;100532.34;5093709;28;20456;-54
2023/04/23 03:37:41;;;;;;;85.20;61.40;;;;;;;6.62;100.00;100524.84;5093349;28;20104;-53
2023/04/23 03:40:08;;;;;;;87.47;61.22;;;;;;;6.63;100.00;100526.63;5094113;28;20098;-52
2023/04/23 03:42:33;;;;;;;89.50;61.30;;;;;;;6.67;100.00;100520.78;5093282;28;20024;-53
2023/04/23 03:44:59;;;;;;;82.90;57.80;;;;;;;6.70;100.00;100518.34;5093987;28;20023;-53
2023/04/23 03:47:25;;;;;;;85.90;59.45;;;;;;;6.75;100.00;100521.97;5093609;28;20032;-53
2023/04/23 03:49:51;;;;;;;86.22;57.60;;;;;;;6.74;100.00;100521.09;5093633;28;20103;-53
2023/04/23 03:52:16;;;;;;;78.97;56.63;;;;;;;6.78;100.00;100524.66;5093638;28;20095;-52
2023/04/23 03:54:41;;;;;;;80.55;57.50;;;;;;;6.83;100.00;100523.16;5093729;28;20028;-53
2023/04/23 03:57:08;;;;;;;76.72;55.85;;;;;;;6.88;100.00;100523.31;5093807;28;20028;-53
2023/04/23 03:59:33;;;;;;;80.45;57.35;;;;;;;6.90;100.00;100531.94;5093462;28;20016;-53
2023/04/23 04:01:58;;;;;;;74.82;54.60;;;;;;;6.96;100.00;100523.63;5093541;28;20035;-52
2023/04/23 04:04:24;;;;;;;74.78;53.72;;;;;;;6.99;100.00;100528.88;5092909;28;20047;-53
2023/04/23 04:06:49;;;;;;;75.20;54.42;;;;;;;7.03;100.00;100529.03;5094153;28;20024;-53
2023/04/23 04:09:14;;;;;;;79.43;55.03;;;;;;;7.07;100.00;100527.47;5092966;28;20032;-53
2023/04/23 04:11:40;;;;;;;68.15;50.25;;;;;;;7.12;100.00;100528.53;5093390;28;20051;-53
2023/04/23 04:14:05;;;;;;;77.60;54.22;;;;;;;7.17;100.00;100532.16;5093436;28;20038;-53
2023/04/23 04:16:30;;;;;;;67.35;50.80;;;;;;;7.23;100.00;100537.50;5092574;28;20391;-52
2023/04/23 04:18:56;;;;;;;65.57;49.80;;;;;;;7.29;100.00;100530.88;5093596;28;20099;-52
2023/04/23 04:21:21;;;;;;;64.70;48.67;;;;;;;7.28;100.00;100524.00;5093374;28;20032;-53
2023/04/23 04:23:47;;;;;;;59.55;47.03;;;;;;;7.32;100.00;100531.88;5092702;28;20061;-54
2023/04/23 04:26:14;;;;;;;60.92;47.20;;;;;;;7.33;100.00;100538.72;5093607;28;20047;-53
2023/04/23 04:28:39;;;;;;;64.28;47.33;;;;;;;7.35;100.00;100542.22;5092929;28;20501;-53
2023/04/23 04:31:05;;;;;;;63.35;45.70;;;;;;;7.40;100.00;100544.97;5092670;28;20095;-53
2023/04/23 04:33:31;;;;;;;63.30;47.83;;;;;;;7.41;100.00;100528.75;5093107;28;20031;-53
2023/04/23 04:35:58;;;;;;;58.90;44.40;;;;;;;7.42;100.00;100538.19;5093180;28;20520;-54
2023/04/23 04:38:23;;;;;;;58.40;45.83;;;;;;;7.45;100.00;100538.31;5092068;28;20428;-52
2023/04/23 04:40:49;;;;;;;59.08;44.97;;;;;;;7.47;100.00;100536.69;5093217;28;20099;-53
2023/04/23 04:43:15;;;;;;;55.05;43.15;;;;;;;7.49;100.00;100535.06;5092937;28;20031;-53
2023/04/23 04:45:41;;;;;;;56.17;43.42;;;;;;;7.51;100.00;100535.97;5092675;28;20024;-53
2023/04/23 04:48:07;;;;;;;53.05;42.55;;;;;;;7.49;100.00;100529.94;5092866;28;20028;-53
2023/04/23 04:50:32;;;;;;;55.58;43.30;;;;;;;7.51;100.00;100533.41;5092630;28;20095;-53
2023/04/23 04:52:57;;;;;;;55.00;43.10;;;;;;;7.51;100.00;100532.53;5092474;28;20035;-53
2023/04/23 04:55:23;;;;;;;52.03;42.42;;;;;;;7.46;100.00;100534.06;5092738;28;20031;-53
2023/04/23 04:57:48;;;;;;;49.97;41.22;;;;;;;7.43;100.00;100529.69;5092738;28;20028;-52
2023/04/23 05:00:22;;;;;;;52.78;42.40;;;;;;;7.44;100.00;100533.13;5092527;28;20433;-53
2023/04/23 05:02:51;;;;;;;53.75;42.45;;;;;;;7.43;100.00;100536.53;5093142;28;20032;-54
2023/04/23 05:05:17;;;;;;;54.33;41.78;;;;;;;7.39;100.00;100532.97;5092288;28;20383;-54
2023/04/23 05:07:43;;;;;;;52.70;42.15;;;;;;;7.39;100.00;100538.09;5092227;28;20039;-52
2023/04/23 05:10:08;;;;;;;51.95;41.80;;;;;;;7.37;100.00;100539.72;5092738;28;20028;-53
2023/04/23 05:12:34;;;;;;;57.47;41.30;;;;;;;7.36;100.00;100532.81;5092197;28;20032;-53
2023/04/23 05:14:59;;;;;;;52.90;41.92;;;;;;;7.41;100.00;100537.34;5093058;28;20024;-53
2023/04/23 05:17:24;;;;;;;52.63;41.53;;;;;;;7.43;100.00;100536.53;5092625;28;20198;-54
2023/04/23 05:19:50;;;;;;;52.85;42.95;;;;;;;7.46;100.00;100529.78;5091935;28;20055;-53
2023/04/23 05:22:17;;;;;;;52.85;41.53;;;;;;;7.48;100.00;100533.31;5092455;28;20032;-54
2023/04/23 05:24:42;;;;;;;52.22;41.10;;;;;;;7.52;100.00;100536.84;5092687;28;20062;-53
2023/04/23 05:27:07;;;;;;;53.13;43.45;;;;;;;7.57;100.00;100537.91;5092063;28;20020;-52
2023/04/23 05:29:33;;;;;;;52.80;42.28;;;;;;;7.64;100.00;100544.13;5092574;28;20024;-53
2023/04/23 05:31:58;;;;;;;52.60;43.33;;;;;;;7.69;100.00;100542.59;5092774;28;20024;-54
2023/04/23 05:34:23;;;;;;;51.05;41.05;;;;;;;7.74;100.00;100546.22;5091485;28;20020;-54
2023/04/23 05:36:48;;;;;;;51.85;40.75;;;;;;;7.78;100.00;100536.94;5092633;28;20073;-52
2023/04/23 05:39:14;;;;;;;51.13;40.00;;;;;;;7.80;100.00;100541.31;5092322;28;20387;-53
2023/04/23 05:41:39;;;;;;;52.55;42.20;;;;;;;7.86;100.00;100543.19;5091711;28;20081;-54
2023/04/23 05:44:04;;;;;;;48.97;40.03;;;;;;;7.89;100.00;100540.75;5092723;28;20107;-53
2023/04/23 05:46:30;;;;;;;50.35;40.03;;;;;;;7.91;100.00;100540.00;5092177;28;20391;-52
2023/04/23 05:48:55;;;;;;;46.10;38.60;;;;;;;7.95;100.00;100535.81;5091929;28;20471;-53
2023/04/23 05:51:20;;;;;;;48.50;39.83;;;;;;;7.99;100.00;100541.94;5092175;28;20024;-52
2023/04/23 05:53:46;;;;;;;47.97;38.47;;;;;;;8.03;100.00;100538.66;5092261;28;20386;-52
2023/04/23 05:56:11;;;;;;;46.30;38.65;;;;;;;8.05;100.00;100531.91;5091779;28;20020;-53
2023/04/23 05:58:37;;;;;;;46.78;39.38;;;;;;;8.11;100.00;100536.34;5092070;28;20104;-53
2023/04/23 06:01:03;;;;;;;46.50;36.97;;;;;;;8.19;100.00;100535.81;5093769;28;20020;-53
2023/04/23 06:03:28;;;;;;;46.17;36.28;;;;;;;8.28;100.00;100531.81;5095212;28;20044;-54
2023/04/23 06:05:54;;;;;;;41.05;34.22;;;;;;;8.33;100.00;100538.00;5096147;28;20024;-53
2023/04/23 06:08:19;;;;;;;41.38;33.80;;;;;;;8.37;100.00;100542.41;5095414;28;20032;-53
2023/04/23 06:10:45;;;;;;;40.70;33.30;;;;;;;8.40;100.00;100539.91;5095281;28;20089;-53
2023/04/23 06:13:10;;;;;;;39.70;32.85;;;;;;;8.50;100.00;100541.16;5096121;28;20107;-53
2023/04/23 06:15:35;;;;;;;38.75;31.77;;;;;;;8.54;100.00;100528.44;5095579;28;20024;-54
2023/04/23 06:18:01;;;;;;;38.13;31.80;;;;;;;8.61;100.00;100531.22;5095387;28;20529;-53
2023/04/23 06:20:26;;;;;;;38.33;30.70;;;;;;;8.68;100.00;100525.47;5095603;28;20024;-53
2023/04/23 06:22:51;;;;;;;31.63;28.23;;;;;;;8.76;100.00;100520.56;5095105;28;20020;-52
2023/04/23 06:25:17;;;;;;;36.38;28.38;;;;;;;8.84;100.00;100519.97;5095170;28;20028;-53
2023/04/23 06:27:42;;;;;;;34.38;28.50;;;;;;;8.92;100.00;100514.19;5095729;28;20036;-53
2023/04/23 06:30:07;;;;;;;35.47;26.85;;;;;;;9.01;100.00;100510.22;5094959;28;20024;-52
2023/04/23 06:32:33;;;;;;;36.33;28.35;;;;;;;9.04;100.00;100504.31;5095455;28;20031;-53
2023/04/23 06:34:58;;;;;;;30.00;25.67;;;;;;;9.16;100.00;100499.50;5095400;28;20018;-53
2023/04/23 06:37:25;;;;;;;30.75;26.33;;;;;;;9.18;100.00;100500.44;5094398;28;20035;-52
2023/04/23 06:39:50;;;;;;;32.67;26.77;;;;;;;9.31;100.00;100498.22;5095243;28;20095;-53
2023/04/23 06:42:15;;;;;;;33.10;27.23;;;;;;;9.38;100.00;100507.84;5095167;28;20544;-54
2023/04/23 06:44:40;;;;;;;30.42;25.38;;;;;;;9.49;100.00;100508.16;5094599;28;20028;-53
2023/04/23 06:47:06;;;;;;;30.30;24.02;;;;;;;9.60;100.00;100496.47;5095342;28;20366;-53
2023/04/23 06:49:31;;;;;;;29.98;23.50;;;;;;;9.62;100.00;100497.41;5094916;28;20085;-53
2023/04/23 06:51:56;;;;;;;30.02;22.90;;;;;;;9.69;100.00;100498.44;5094595;28;20031;-53
2023/04/23 06:54:22;;;;;;;27.80;22.70;;;;;;;9.82;100.00;100497.06;5094837;28;20055;-54
2023/04/23 06:56:47;;;;;;;29.40;21.80;;;;;;;9.91;100.00;100501.59;5095100;28;20024;-51
2023/04/23 06:59:12;;;;;;;26.13;21.05;;;;;;;9.96;100.00;100500.88;5094632;28;20012;-53
2023/04/23 07:01:37;;;;;;;24.27;19.48;;;;;;;10.06;100.00;100496.84;5094674;28;20036;-53
2023/04/23 07:04:03;;;;;;;25.92;19.98;;;;;;;10.13;100.00;100500.47;5094569;28;20507;-52
2023/04/23 07:06:28;;;;;;;23.15;19.38;;;;;;;10.18;100.00;100499.72;5094035;28;20084;-52
2023/04/23 07:08:53;;;;;;;25.00;19.10;;;;;;;10.21;100.00;100496.34;5094797;28;20390;-54
2023/04/23 07:11:18;;;;;;;25.23;19.08;;;;;;;10.35;100.00;100497.63;5094121;28;20133;-53
2023/04/23 07:13:44;;;;;;;24.98;16.73;;;;;;;10.39;100.00;100488.25;5094321;28;20384;-52
2023/04/23 07:16:10;;;;;;;25.15;16.35;;;;;;;10.46;100.00;100490.16;5094817;28;20064;-53
2023/04/23 07:18:35;;;;;;;21.42;16.60;;;;;;;10.53;100.00;100489.47;5094140;28;20052;-53
2023/04/23 07:21:01;;;;;;;26.30;16.85;;;;;;;10.65;100.00;100493.16;5094256;28;20024;-53
2023/04/23 07:23:26;;;;;;;19.85;15.52;;;;;;;10.69;100.00;100490.72;5094299;28;20090;-53
2023/04/23 07:25:51;;;;;;;24.13;15.60;;;;;;;10.78;100.00;100487.47;5094179;28;20016;-53
2023/04/23 07:28:16;;;;;;;22.38;14.98;;;;;;;10.89;100.00;100494.59;5093737;28;20036;-52
2023/04/23 07:30:42;;;;;;;21.65;14.73;;;;;;;11.06;100.00;100492.38;5094487;28;20074;-52
2023/04/23 07:33:07;;;;;;;20.33;13.35;;;;;;;11.13;100.00;100495.13;5094206;28;20095;-53
2023/04/23 07:35:33;;;;;;;21.15;13.93;;;;;;;11.19;100.00;100487.53;5093477;28;20016;-52
2023/04/23 07:37:58;;;;;;;24.00;13.23;;;;;;;11.25;100.00;100489.34;5094290;28;20020;-53
2023/04/23 07:40:23;;;;;;;19.70;12.52;;;;;;;11.39;100.00;100481.91;5093014;28;20024;-53
2023/04/23 07:42:49;;;;;;;17.58;11.85;;;;;;;11.44;100.00;100482.88;5094048;28;20103;-53
2023/04/23 07:45:14;;;;;;;17.70;11.60;;;;;;;11.51;100.00;100478.69;5094338;28;20030;-52
2023/04/23 07:47:40;;;;;;;16.00;10.82;;;;;;;11.61;100.00;100475.44;5093317;28;20119;-54
2023/04/23 07:50:06;;;;;;;16.73;9.60;;;;;;;11.75;100.00;100475.72;5094084;28;20077;-53
2023/04/23 07:52:31;;;;;;;19.15;9.63;;;;;;;11.81;100.00;100481.00;5093407;28;20020;-52
2023/04/23 07:54:57;;;;;;;15.07;9.45;;;;;;;11.95;100.00;100475.22;5093361;28;20106;-54
2023/04/23 07:57:22;;;;;;;17.05;8.75;;;;;;;12.07;100.00;100474.56;5093842;28;20029;-53
2023/04/23 07:59:47;;;;;;;15.77;8.32;;;;;;;12.10;100.00;100472.94;5093774;28;20425;-54
2023/04/23 08:02:13;;;;;;;15.02;8.10;;;;;;;12.19;100.00;100475.66;5093249;28;20394;-54
2023/04/23 08:04:38;;;;;;;17.83;7.80;;;;;;;12.21;100.00;100472.25;5093324;28;20440;-53
2023/04/23 08:07:03;;;;;;;17.08;8.02;;;;;;;12.31;100.00;100481.88;5093300;28;20044;-53
2023/04/23 08:09:30;;;;;;;16.25;7.38;;;;;;;12.40;100.00;100474.28;5092644;28;20044;-53
2023/04/23 08:11:56;;;;;;;11.50;6.25;;;;;;;12.48;100.00;100461.47;5093880;28;20103;-53
2023/04/23 08:14:21;;;;;;;16.50;6.97;;;;;;;12.63;100.00;100466.03;5092976;28;20433;-54
2023/04/23 08:16:47;;;;;;;17.08;5.90;;;;;;;12.80;100.00;100469.72;5093109;28;20020;-52
2023/04/23 08:19:12;;;;;;;14.15;5.93;;;;;;;12.96;100.00;100469.91;5093474;28;20042;-50
2023/04/23 08:21:37;;;;;;;20.20;7.03;;;;;;;13.05;100.00;100472.63;5092956;28;20482;-53
2023/04/23 08:24:04;;;;;;;14.93;6.47;;;;;;;13.16;100.00;100471.06;5092346;28;20024;-53
2023/04/23 08:26:30;;;;;;;15.20;6.20;;;;;;;13.16;100.00;100462.44;5093315;28;20016;-54
2023/04/23 08:28:56;;;;;;;21.65;6.20;;;;;;;13.22;100.00;100456.47;5093206;28;20081;-54
2023/04/23 08:31:21;;;;;;;18.05;6.40;;;;;;;13.22;100.00;100453.88;5092312;28;20028;-53
2023/04/23 08:33:46;;;;;;;14.10;5.65;;;;;;;13.30;99.97;100449.69;5093413;28;20110;-53
2023/04/23 08:36:14;;;;;;;15.45;6.15;;;;;;;13.47;99.90;100444.72;5093040;28;20024;-54
2023/04/23 08:38:39;;;;;;;16.23;5.53;;;;;;;13.50;97.20;100443.03;5092235;28;20020;-53
2023/04/23 08:41:09;;;;;;;16.10;6.00;;;;;;;13.73;99.06;100449.31;5093367;28;20081;-53
2023/04/23 08:43:45;;;;;;;16.15;5.57;;;;;;;13.95;98.56;100450.38;5092245;28;20024;-54
2023/04/23 08:46:13;;;;;;;11.20;4.80;;;;;;;13.98;94.21;100455.59;5093211;28;20035;-54
2023/04/23 08:48:40;;;;;;;11.32;4.13;;;;;;;14.01;90.68;100450.44;5092436;28;20468;-54
2023/04/23 08:51:08;;;;;;;11.02;4.28;;;;;;;14.16;90.95;100448.00;5092316;28;20383;-53
2023/04/23 08:53:33;;;;;;;13.95;3.85;;;;;;;14.17;89.02;100441.06;5092794;28;20020;-53
2023/04/23 08:55:59;;;;;;;12.45;4.03;;;;;;;14.20;85.71;100445.41;5092625;28;20085;-53
2023/04/23 08:58:26;;;;;;;11.32;3.47;;;;;;;14.34;86.67;100446.38;5091979;28;20454;-54
2023/04/23 09:00:53;;;;;;;13.85;3.63;;;;;;;14.48;86.39;100441.31;5092909;28;20441;-54
2023/04/23 09:03:19;;;;;;;12.73;3.70;;;;;;;14.57;83.83;100445.69;5092268;28;20039;-54
2023/04/23 09:05:45;;;;;;;9.52;3.45;;;;;;;14.74;85.54;100448.44;5092282;28;20032;-54
2023/04/23 09:08:11;;;;;;;11.95;3.53;;;;;;;14.71;80.92;100445.81;5092954;28;20047;-51
2023/04/23 09:10:40;;;;;;;11.18;3.75;;;;;;;14.63;81.26;100440.56;5092460;28;20033;-54
2023/04/23 09:13:06;;;;;;;11.68;3.33;;;;;;;14.56;82.72;100442.22;5092336;28;20027;-54
2023/04/23 09:15:31;;;;;;;10.10;3.38;;;;;;;14.60;83.42;100441.41;5092580;28;20028;-54
2023/04/23 09:17:57;;;;;;;10.43;3.10;;;;;;;14.61;82.55;100437.06;5092593;28;20042;-54
2023/04/23 09:20:22;;;;;;;8.80;2.83;;;;;;;14.70;82.40;100437.16;5091825;28;20029;-53
2023/04/23 09:22:51;;;;;;;10.63;3.10;;;;;;;14.90;82.52;100444.19;5092970;28;20044;-53
2023/04/23 09:25:19;;;;;;;7.85;2.90;;;;;;;15.07;82.54;100447.75;5092293;28;20153;-54
2023/04/23 09:27:45;;;;;;;13.25;3.30;;;;;;;15.40;80.76;100440.06;5092189;28;20024;-53
2023/04/23 09:30:12;;;;;;;10.73;3.60;;;;;;;15.28;75.39;100431.38;5092683;28;20115;-54
2023/04/23 09:32:41;;;;;;;9.18;3.17;;;;;;;15.25;75.30;100430.53;5092104;28;20035;-53
2023/04/23 09:35:12;;;;;;;13.55;3.28;;;;;;;15.61;77.41;100434.09;5092132;28;20028;-54
2023/04/23 09:37:41;;;;;;;10.48;2.97;;;;;;;15.86;76.91;100428.97;5096308;28;20471;-54
2023/04/23 09:40:10;;;;;;;9.27;2.85;;;;;;;16.15;76.00;100430.69;5095729;28;20564;-53
2023/04/23 09:42:36;;;;;;;8.05;2.28;;;;;;;16.06;69.35;100432.44;5096262;28;20039;-54
2023/04/23 09:45:06;;;;;;;7.30;2.83;;;;;;;16.00;66.31;100421.16;5096245;28;20097;-53
2023/04/23 09:47:34;;;;;;;7.80;2.20;;;;;;;16.37;66.78;100429.84;5095302;28;20464;-54
2023/04/23 09:50:00;;;;;;;;;;;;;;;16.40;65.85;100427.22;5097024;28;20024;-55
2023/04/23 09:52:25;;;;;;;6.35;2.17;;;;;;;16.58;65.18;100420.25;5095887;28;19919;-54
2023/04/23 09:54:51;;;;;;;9.20;2.17;;;;;;;16.38;62.70;100417.69;5095699;28;20417;-55
2023/04/23 09:57:16;;;;;;;9.65;2.00;;;;;;;16.25;61.85;100424.63;5095909;28;20023;-55
2023/04/23 09:59:42;;;;;;;8.52;2.20;;;;;;;16.11;63.19;100422.91;5095911;28;20055;-54
2023/04/23 10:02:08;;;;;;;9.07;2.25;;;;;;;16.07;64.04;100417.69;5095547;28;20054;-55
2023/04/23 10:04:34;;;;;;;11.30;2.40;;;;;;;16.15;63.63;100420.28;5095737;28;20123;-55
2023/04/23 10:07:02;;;;;;;7.35;2.13;;;;;;;16.05;64.83;100414.22;5095877;28;20479;-54
2023/04/23 10:09:28;;;;;;;11.93;2.15;;;;;;;16.21;64.21;100409.91;5094901;28;20379;-54
2023/04/23 10:11:58;;;;;;;10.30;2.70;;;;;;;16.05;64.52;100407.31;5095935;28;20067;-55
2023/04/23 10:14:25;;;;;;;11.73;2.80;;;;;;;16.20;66.27;100413.34;5095251;28;20028;-54
2023/04/23 10:16:53;;;;;;;11.52;2.92;;;;;;;16.12;62.98;100409.00;5095455;28;20057;-54
2023/04/23 10:19:23;;;;;;;12.18;2.60;;;;;;;16.20;62.95;100405.56;5095485;28;20480;-54
2023/04/23 10:22:03;;;;;;;9.57;2.40;;;;;;;16.33;64.72;100402.06;5095735;28;20051;-54
2023/04/23 10:24:32;;;;;;;8.63;2.15;;;;;;;16.42;63.87;100404.69;5095480;28;20467;-54
2023/04/23 10:27:01;;;;;;;7.40;2.15;;;;;;;16.61;62.95;100404.63;5095300;28;20020;-55
2023/04/23 10:29:28;;;;;;;10.00;2.88;;;;;;;17.10;62.68;100396.66;5094602;28;20543;-54
2023/04/23 10:32:01;;;;;;;10.48;2.50;;;;;;;17.09;61.54;100408.00;5095747;28;20131;-54
2023/04/23 10:34:28;;;;;;;8.80;2.15;;;;;;;16.92;61.99;100394.16;5094960;28;20467;-55
2023/04/23 10:36:56;;;;;;;9.38;2.17;;;;;;;16.78;61.02;100392.44;5094896;28;20020;-55
2023/04/23 10:39:23;;;;;;;10.23;2.60;;;;;;;16.61;62.98;100399.44;5095279;28;20028;-55
2023/04/23 10:41:49;;;;;;;;;;;;;;;16.72;65.99;100392.47;5095576;28;20456;-56
2023/04/23 10:44:17;;;;;;;7.97;2.33;;;;;;;16.40;64.42;100385.59;5095024;28;19972;-55
2023/04/23 10:46:56;;;;;;;8.07;1.85;;;;;;;16.54;65.14;100384.69;5094917;28;20031;-55
2023/04/23 10:49:22;;;;;;;6.88;2.20;;;;;;;16.35;65.07;100379.53;5094667;28;20032;-55
2023/04/23 10:51:48;;;;;;;7.65;2.17;;;;;;;16.27;64.79;100381.31;5094669;28;20076;-55
2023/04/23 10:54:14;;;;;;;8.02;2.50;;;;;;;16.19;66.46;100373.50;5095086;28;20028;-55
2023/04/23 10:56:41;;;;;;;9.90;2.63;;;;;;;16.20;67.56;100372.63;5094870;28;20031;-55
2023/04/23 10:59:20;;;;;;;7.10;2.22;;;;;;;16.54;68.43;100372.56;5094597;28;20020;-53
2023/04/23 11:01:50;;;;;;;8.18;2.20;;;;;;;16.67;66.07;100365.59;5095015;28;20020;-55
2023/04/23 11:04:19;;;;;;;5.78;2.00;;;;;;;16.88;62.08;100351.63;5093903;28;20064;-55